Погода Узудна неделю

Марракеш, Марокко

18 - 24 июля
  • 18июля
    Сегодня
    +29°
    +43°
    Практически безоблачно
    ВремяПогодаТемператураВлажностьДавлениеВетер, м/сВероятность осадков
    01:00Небольшая облачность+33°C27 %725 мм0.4 м/с2 %
    04:00Ясно и безоблачно+29°C32 %724 мм2.1 м/с2 %
    07:00Практически безоблачно+30°C33 %724 мм1.6 м/с2 %
    10:00Небольшая облачность+35°C21 %725 мм0.9 м/с2 %
    13:00Практически безоблачно+40°C17 %726 мм4.9 м/с4 %
    16:00Облачно с прояснениями+42°C13 %726 мм2.6 м/с10 %
    19:00Пасмурно, сплошная облачность+35°C20 %726 мм5.7 м/с13 %
    22:00Ясно и безоблачно+35°C24 %728 мм3.3 м/с2 %
  • 19июля
    Пятница
    +28°
    +43°
    Ясно и безоблачно
    ВремяПогодаТемператураВлажностьДавлениеВетер, м/сВероятность осадков
    01:00Ясно и безоблачно+32°C28 %727 мм2.3 м/с2 %
    04:00Ясно и безоблачно+30°C32 %726 мм3.3 м/с2 %
    07:00Ясно и безоблачно+30°C34 %726 мм2.8 м/с2 %
    10:00Ясно и безоблачно+35°C21 %727 мм1.5 м/с2 %
    13:00Ясно и безоблачно+41°C12 %727 мм1.1 м/с2 %
    16:00Практически безоблачно+43°C10 %726 мм2.6 м/с1 %
    19:00Облачно с прояснениями+38°C14 %726 мм2.1 м/с7 %
    22:00Облачно с прояснениями+38°C20 %727 мм3.4 м/с6 %
  • 20июля
    Суббота
    +25°
    +43°
    Ясно и безоблачно
    ВремяПогодаТемператураВлажностьДавлениеВетер, м/сВероятность осадков
    01:00Ясно и безоблачно+33°C28 %726 мм1.4 м/с2 %
    04:00Ясно и безоблачно+31°C32 %725 мм1.2 м/с2 %
    07:00Ясно и безоблачно+29°C32 %725 мм2.0 м/с2 %
    10:00Ясно и безоблачно+33°C22 %726 мм0.5 м/с2 %
    13:00Ясно и безоблачно+40°C14 %725 мм2.2 м/с2 %
    16:00Практически безоблачно+42°C9 %723 мм3.0 м/с2 %
    19:00Ясно и безоблачно+38°C21 %722 мм7.5 м/с2 %
    22:00Ясно и безоблачно+34°C27 %725 мм3.4 м/с2 %
  • 21июля
    Воскресенье
    +25°
    +43°
    Ясно и безоблачно
    ВремяПогодаТемператураВлажностьДавлениеВетер, м/сВероятность осадков
    01:00Ясно и безоблачно+31°C30 %725 мм1.8 м/с2 %
    04:00Ясно и безоблачно+27°C38 %724 мм1.2 м/с2 %
    07:00Ясно и безоблачно+26°C43 %724 мм0.2 м/с2 %
    10:00Ясно и безоблачно+30°C31 %725 мм0.6 м/с2 %
    13:00Ясно и безоблачно+38°C19 %724 мм1.3 м/с2 %
    16:00Ясно и безоблачно+42°C12 %722 мм3.2 м/с2 %
    19:00Ясно и безоблачно+40°C15 %722 мм5.7 м/с2 %
    22:00Ясно и безоблачно+35°C36 %724 мм4.0 м/с2 %
  • 22июля
    Понедельник
    +26°
    +42°
    Ясно и безоблачно
    ВремяПогодаТемператураВлажностьДавлениеВетер, м/сВероятность осадков
    01:00Практически безоблачно+31°C43 %724 мм1.7 м/с2 %
    04:00Ясно и безоблачно+27°C50 %724 мм1.3 м/с2 %
    07:00Ясно и безоблачно+26°C63 %724 мм2.4 м/с2 %
    10:00Ясно и безоблачно+29°C46 %725 мм1.7 м/с2 %
    13:00Ясно и безоблачно+37°C25 %724 мм2.1 м/с2 %
    16:00Практически безоблачно+42°C17 %724 мм3.0 м/с2 %
    19:00Практически безоблачно+41°C15 %723 мм4.1 м/с2 %
    22:00Ясно и безоблачно+35°C31 %725 мм3.1 м/с2 %
Мы используем cookies
Соглашаюсь